sensor_id;sensor_type;location;lat;lon;timestamp;P1;durP1;ratioP1;P2;durP2;ratioP2
16579;SDS011;8402;51.466;6.806;2023-11-21T00:00:24;10.57;;;5.83;;
16579;SDS011;8402;51.466;6.806;2023-11-21T00:02:55;15.80;;;6.80;;
16579;SDS011;8402;51.466;6.806;2023-11-21T00:05:25;16.37;;;6.83;;
16579;SDS011;8402;51.466;6.806;2023-11-21T00:07:55;18.10;;;7.17;;
16579;SDS011;8402;51.466;6.806;2023-11-21T00:10:27;13.00;;;6.70;;
16579;SDS011;8402;51.466;6.806;2023-11-21T00:12:57;12.57;;;6.37;;
16579;SDS011;8402;51.466;6.806;2023-11-21T00:15:28;12.30;;;6.53;;
16579;SDS011;8402;51.466;6.806;2023-11-21T00:17:58;15.07;;;7.20;;
16579;SDS011;8402;51.466;6.806;2023-11-21T00:20:29;17.17;;;6.87;;
16579;SDS011;8402;51.466;6.806;2023-11-21T00:22:59;13.87;;;6.03;;
16579;SDS011;8402;51.466;6.806;2023-11-21T00:25:31;15.03;;;7.37;;
16579;SDS011;8402;51.466;6.806;2023-11-21T00:28:01;16.00;;;6.80;;
16579;SDS011;8402;51.466;6.806;2023-11-21T00:30:32;13.43;;;6.80;;
16579;SDS011;8402;51.466;6.806;2023-11-21T00:33:02;11.50;;;6.10;;
16579;SDS011;8402;51.466;6.806;2023-11-21T00:35:32;13.87;;;6.27;;
16579;SDS011;8402;51.466;6.806;2023-11-21T00:38:02;17.83;;;7.60;;
16579;SDS011;8402;51.466;6.806;2023-11-21T00:40:35;13.03;;;6.53;;
16579;SDS011;8402;51.466;6.806;2023-11-21T00:43:05;12.37;;;6.37;;
16579;SDS011;8402;51.466;6.806;2023-11-21T00:45:35;15.37;;;6.67;;
16579;SDS011;8402;51.466;6.806;2023-11-21T00:48:06;17.23;;;6.63;;
16579;SDS011;8402;51.466;6.806;2023-11-21T00:50:36;15.23;;;6.97;;
16579;SDS011;8402;51.466;6.806;2023-11-21T00:53:06;13.03;;;6.67;;
16579;SDS011;8402;51.466;6.806;2023-11-21T00:55:40;15.27;;;7.17;;
16579;SDS011;8402;51.466;6.806;2023-11-21T00:58:09;14.97;;;6.57;;
16579;SDS011;8402;51.466;6.806;2023-11-21T01:00:39;13.60;;;6.30;;
16579;SDS011;8402;51.466;6.806;2023-11-21T01:03:10;15.30;;;6.77;;
16579;SDS011;8402;51.466;6.806;2023-11-21T01:05:40;14.00;;;6.97;;
16579;SDS011;8402;51.466;6.806;2023-11-21T01:08:10;18.90;;;7.10;;
16579;SDS011;8402;51.466;6.806;2023-11-21T01:10:43;14.03;;;6.20;;
16579;SDS011;8402;51.466;6.806;2023-11-21T01:13:16;14.83;;;6.97;;
16579;SDS011;8402;51.466;6.806;2023-11-21T01:15:46;15.53;;;6.30;;
16579;SDS011;8402;51.466;6.806;2023-11-21T01:18:16;18.17;;;6.90;;
16579;SDS011;8402;51.466;6.806;2023-11-21T01:20:46;13.43;;;6.77;;
16579;SDS011;8402;51.466;6.806;2023-11-21T01:23:16;13.10;;;6.23;;
16579;SDS011;8402;51.466;6.806;2023-11-21T01:25:48;14.37;;;6.73;;
16579;SDS011;8402;51.466;6.806;2023-11-21T01:28:19;12.63;;;6.53;;
16579;SDS011;8402;51.466;6.806;2023-11-21T01:30:49;12.00;;;6.30;;
16579;SDS011;8402;51.466;6.806;2023-11-21T01:33:19;17.67;;;6.33;;
16579;SDS011;8402;51.466;6.806;2023-11-21T01:35:51;14.10;;;6.23;;
16579;SDS011;8402;51.466;6.806;2023-11-21T01:38:22;11.67;;;5.90;;
16579;SDS011;8402;51.466;6.806;2023-11-21T01:40:55;15.43;;;6.50;;
16579;SDS011;8402;51.466;6.806;2023-11-21T01:43:27;15.83;;;6.90;;
16579;SDS011;8402;51.466;6.806;2023-11-21T01:45:58;14.37;;;6.50;;
16579;SDS011;8402;51.466;6.806;2023-11-21T01:48:28;12.90;;;5.77;;
16579;SDS011;8402;51.466;6.806;2023-11-21T01:50:58;12.10;;;6.53;;
16579;SDS011;8402;51.466;6.806;2023-11-21T01:53:28;14.17;;;6.30;;
16579;SDS011;8402;51.466;6.806;2023-11-21T01:56:01;18.03;;;6.50;;
16579;SDS011;8402;51.466;6.806;2023-11-21T01:58:31;14.57;;;6.40;;
16579;SDS011;8402;51.466;6.806;2023-11-21T02:01:01;12.77;;;6.47;;
16579;SDS011;8402;51.466;6.806;2023-11-21T02:03:31;11.97;;;5.73;;
16579;SDS011;8402;51.466;6.806;2023-11-21T02:06:01;13.60;;;6.60;;
16579;SDS011;8402;51.466;6.806;2023-11-21T02:08:32;12.20;;;6.20;;
16579;SDS011;8402;51.466;6.806;2023-11-21T02:11:07;16.33;;;7.00;;
16579;SDS011;8402;51.466;6.806;2023-11-21T02:13:39;17.27;;;6.80;;
16579;SDS011;8402;51.466;6.806;2023-11-21T02:16:12;15.23;;;6.87;;
16579;SDS011;8402;51.466;6.806;2023-11-21T02:18:42;15.20;;;6.77;;
16579;SDS011;8402;51.466;6.806;2023-11-21T02:21:14;14.20;;;6.03;;
16579;SDS011;8402;51.466;6.806;2023-11-21T02:23:48;12.83;;;6.03;;
16579;SDS011;8402;51.466;6.806;2023-11-21T02:26:18;13.80;;;6.37;;
16579;SDS011;8402;51.466;6.806;2023-11-21T02:28:48;11.23;;;6.00;;
16579;SDS011;8402;51.466;6.806;2023-11-21T02:31:20;16.67;;;6.80;;
16579;SDS011;8402;51.466;6.806;2023-11-21T02:33:50;16.90;;;7.20;;
16579;SDS011;8402;51.466;6.806;2023-11-21T02:36:20;9.80;;;5.90;;
16579;SDS011;8402;51.466;6.806;2023-11-21T02:38:52;12.60;;;5.97;;
16579;SDS011;8402;51.466;6.806;2023-11-21T02:41:22;16.87;;;6.50;;
16579;SDS011;8402;51.466;6.806;2023-11-21T02:43:52;12.30;;;6.03;;
16579;SDS011;8402;51.466;6.806;2023-11-21T02:46:22;13.93;;;6.53;;
16579;SDS011;8402;51.466;6.806;2023-11-21T02:48:53;11.43;;;6.47;;
16579;SDS011;8402;51.466;6.806;2023-11-21T02:51:24;14.00;;;6.87;;
16579;SDS011;8402;51.466;6.806;2023-11-21T02:53:57;15.33;;;6.37;;
16579;SDS011;8402;51.466;6.806;2023-11-21T02:56:29;15.17;;;6.77;;
16579;SDS011;8402;51.466;6.806;2023-11-21T02:58:59;10.57;;;5.80;;
16579;SDS011;8402;51.466;6.806;2023-11-21T03:01:30;15.57;;;6.80;;
16579;SDS011;8402;51.466;6.806;2023-11-21T03:04:00;16.43;;;6.73;;
16579;SDS011;8402;51.466;6.806;2023-11-21T03:06:30;16.93;;;5.90;;
16579;SDS011;8402;51.466;6.806;2023-11-21T03:09:03;16.13;;;6.33;;
16579;SDS011;8402;51.466;6.806;2023-11-21T03:11:33;17.83;;;7.40;;
16579;SDS011;8402;51.466;6.806;2023-11-21T03:14:03;14.97;;;7.07;;
16579;SDS011;8402;51.466;6.806;2023-11-21T03:16:33;22.17;;;7.13;;
16579;SDS011;8402;51.466;6.806;2023-11-21T03:19:05;15.43;;;6.43;;
16579;SDS011;8402;51.466;6.806;2023-11-21T03:21:35;17.47;;;7.10;;
16579;SDS011;8402;51.466;6.806;2023-11-21T03:24:07;15.47;;;6.60;;
16579;SDS011;8402;51.466;6.806;2023-11-21T03:26:38;14.73;;;6.53;;
16579;SDS011;8402;51.466;6.806;2023-11-21T03:29:07;13.17;;;6.57;;
16579;SDS011;8402;51.466;6.806;2023-11-21T03:31:38;22.00;;;7.03;;
16579;SDS011;8402;51.466;6.806;2023-11-21T03:34:09;18.07;;;7.60;;
16579;SDS011;8402;51.466;6.806;2023-11-21T03:36:41;13.70;;;7.13;;
16579;SDS011;8402;51.466;6.806;2023-11-21T03:39:15;13.27;;;6.37;;
16579;SDS011;8402;51.466;6.806;2023-11-21T03:41:45;16.33;;;6.60;;
16579;SDS011;8402;51.466;6.806;2023-11-21T03:44:15;19.73;;;7.33;;
16579;SDS011;8402;51.466;6.806;2023-11-21T03:46:45;12.80;;;6.67;;
16579;SDS011;8402;51.466;6.806;2023-11-21T03:49:15;15.57;;;7.70;;
16579;SDS011;8402;51.466;6.806;2023-11-21T03:51:45;15.97;;;7.10;;
16579;SDS011;8402;51.466;6.806;2023-11-21T03:54:17;14.97;;;6.73;;
16579;SDS011;8402;51.466;6.806;2023-11-21T03:56:47;20.83;;;7.30;;
16579;SDS011;8402;51.466;6.806;2023-11-21T03:59:18;13.50;;;7.17;;
16579;SDS011;8402;51.466;6.806;2023-11-21T04:01:50;18.10;;;7.97;;
16579;SDS011;8402;51.466;6.806;2023-11-21T04:04:20;13.97;;;7.10;;
16579;SDS011;8402;51.466;6.806;2023-11-21T04:06:51;16.13;;;7.97;;
16579;SDS011;8402;51.466;6.806;2023-11-21T04:09:23;13.80;;;7.30;;
16579;SDS011;8402;51.466;6.806;2023-11-21T04:11:54;17.47;;;7.43;;
16579;SDS011;8402;51.466;6.806;2023-11-21T04:14:25;15.97;;;6.93;;
16579;SDS011;8402;51.466;6.806;2023-11-21T04:16:55;16.63;;;7.60;;
16579;SDS011;8402;51.466;6.806;2023-11-21T04:19:25;17.67;;;7.83;;
16579;SDS011;8402;51.466;6.806;2023-11-21T04:21:55;19.77;;;8.37;;
16579;SDS011;8402;51.466;6.806;2023-11-21T04:24:27;15.53;;;7.13;;
16579;SDS011;8402;51.466;6.806;2023-11-21T04:26:57;19.90;;;7.43;;
16579;SDS011;8402;51.466;6.806;2023-11-21T04:29:29;14.93;;;7.57;;
16579;SDS011;8402;51.466;6.806;2023-11-21T04:31:59;15.23;;;7.23;;
16579;SDS011;8402;51.466;6.806;2023-11-21T04:34:29;16.27;;;7.20;;
16579;SDS011;8402;51.466;6.806;2023-11-21T04:36:59;14.20;;;7.70;;
16579;SDS011;8402;51.466;6.806;2023-11-21T04:39:32;18.30;;;7.40;;
16579;SDS011;8402;51.466;6.806;2023-11-21T04:42:02;14.47;;;8.10;;
16579;SDS011;8402;51.466;6.806;2023-11-21T04:44:35;20.50;;;8.63;;
16579;SDS011;8402;51.466;6.806;2023-11-21T04:47:07;18.00;;;8.00;;
16579;SDS011;8402;51.466;6.806;2023-11-21T04:49:37;17.77;;;8.43;;
16579;SDS011;8402;51.466;6.806;2023-11-21T04:52:09;16.93;;;7.97;;
16579;SDS011;8402;51.466;6.806;2023-11-21T04:54:42;22.70;;;8.53;;
16579;SDS011;8402;51.466;6.806;2023-11-21T04:57:12;16.10;;;8.40;;
16579;SDS011;8402;51.466;6.806;2023-11-21T04:59:44;14.43;;;7.87;;
16579;SDS011;8402;51.466;6.806;2023-11-21T05:02:14;20.40;;;8.93;;
16579;SDS011;8402;51.466;6.806;2023-11-21T05:05:00;17.40;;;8.03;;
16579;SDS011;8402;51.466;6.806;2023-11-21T05:07:31;19.63;;;8.53;;
16579;SDS011;8402;51.466;6.806;2023-11-21T05:10:06;15.53;;;7.90;;
16579;SDS011;8402;51.466;6.806;2023-11-21T05:12:39;17.47;;;8.33;;
16579;SDS011;8402;51.466;6.806;2023-11-21T05:15:10;16.83;;;8.87;;
16579;SDS011;8402;51.466;6.806;2023-11-21T05:17:44;23.50;;;9.37;;
16579;SDS011;8402;51.466;6.806;2023-11-21T05:20:17;15.00;;;8.13;;
16579;SDS011;8402;51.466;6.806;2023-11-21T05:22:48;18.67;;;8.27;;
16579;SDS011;8402;51.466;6.806;2023-11-21T05:25:21;19.97;;;8.40;;
16579;SDS011;8402;51.466;6.806;2023-11-21T05:27:52;16.07;;;8.47;;
16579;SDS011;8402;51.466;6.806;2023-11-21T05:30:22;17.63;;;8.80;;
16579;SDS011;8402;51.466;6.806;2023-11-21T05:32:52;24.53;;;9.00;;
16579;SDS011;8402;51.466;6.806;2023-11-21T05:35:22;23.03;;;8.07;;
16579;SDS011;8402;51.466;6.806;2023-11-21T05:37:53;20.43;;;8.50;;
16579;SDS011;8402;51.466;6.806;2023-11-21T05:40:25;23.27;;;8.67;;
16579;SDS011;8402;51.466;6.806;2023-11-21T05:42:56;18.90;;;8.40;;
16579;SDS011;8402;51.466;6.806;2023-11-21T05:45:26;16.13;;;7.83;;
16579;SDS011;8402;51.466;6.806;2023-11-21T05:47:57;19.87;;;8.07;;
16579;SDS011;8402;51.466;6.806;2023-11-21T05:50:29;19.03;;;8.27;;
16579;SDS011;8402;51.466;6.806;2023-11-21T05:52:59;22.83;;;8.57;;
16579;SDS011;8402;51.466;6.806;2023-11-21T05:55:32;17.13;;;8.53;;
16579;SDS011;8402;51.466;6.806;2023-11-21T05:58:02;20.80;;;9.87;;
16579;SDS011;8402;51.466;6.806;2023-11-21T06:00:31;28.77;;;9.90;;
16579;SDS011;8402;51.466;6.806;2023-11-21T06:03:06;16.23;;;8.93;;
16579;SDS011;8402;51.466;6.806;2023-11-21T06:05:36;24.67;;;10.03;;
16579;SDS011;8402;51.466;6.806;2023-11-21T06:08:06;23.03;;;9.53;;
16579;SDS011;8402;51.466;6.806;2023-11-21T06:10:39;27.50;;;10.83;;
16579;SDS011;8402;51.466;6.806;2023-11-21T06:13:10;33.40;;;13.00;;
16579;SDS011;8402;51.466;6.806;2023-11-21T06:15:40;38.60;;;13.17;;
16579;SDS011;8402;51.466;6.806;2023-11-21T06:18:11;34.93;;;13.20;;
16579;SDS011;8402;51.466;6.806;2023-11-21T06:20:41;39.60;;;14.57;;
16579;SDS011;8402;51.466;6.806;2023-11-21T06:23:11;35.77;;;13.63;;
16579;SDS011;8402;51.466;6.806;2023-11-21T06:25:45;40.50;;;13.97;;
16579;SDS011;8402;51.466;6.806;2023-11-21T06:28:15;38.87;;;15.00;;
16579;SDS011;8402;51.466;6.806;2023-11-21T06:30:46;45.87;;;15.00;;
16579;SDS011;8402;51.466;6.806;2023-11-21T06:33:17;45.47;;;15.43;;
16579;SDS011;8402;51.466;6.806;2023-11-21T06:35:48;50.07;;;16.07;;
16579;SDS011;8402;51.466;6.806;2023-11-21T06:38:18;52.13;;;15.83;;
16579;SDS011;8402;51.466;6.806;2023-11-21T06:40:51;44.53;;;15.67;;
16579;SDS011;8402;51.466;6.806;2023-11-21T06:43:21;44.27;;;15.30;;
16579;SDS011;8402;51.466;6.806;2023-11-21T06:45:51;47.73;;;15.77;;
16579;SDS011;8402;51.466;6.806;2023-11-21T06:48:21;45.03;;;16.67;;
16579;SDS011;8402;51.466;6.806;2023-11-21T06:50:51;53.40;;;15.87;;
16579;SDS011;8402;51.466;6.806;2023-11-21T06:53:21;45.43;;;15.93;;
16579;SDS011;8402;51.466;6.806;2023-11-21T06:55:56;55.40;;;17.77;;
16579;SDS011;8402;51.466;6.806;2023-11-21T06:58:27;55.60;;;17.53;;
16579;SDS011;8402;51.466;6.806;2023-11-21T07:00:57;48.77;;;17.37;;
16579;SDS011;8402;51.466;6.806;2023-11-21T07:03:28;59.23;;;18.20;;
16579;SDS011;8402;51.466;6.806;2023-11-21T07:05:58;51.37;;;17.67;;
16579;SDS011;8402;51.466;6.806;2023-11-21T07:08:28;59.07;;;18.13;;
16579;SDS011;8402;51.466;6.806;2023-11-21T07:11:00;65.83;;;19.43;;
16579;SDS011;8402;51.466;6.806;2023-11-21T07:13:30;53.33;;;17.33;;
16579;SDS011;8402;51.466;6.806;2023-11-21T07:16:00;53.20;;;16.90;;
16579;SDS011;8402;51.466;6.806;2023-11-21T07:18:31;65.23;;;19.73;;
16579;SDS011;8402;51.466;6.806;2023-11-21T07:21:01;55.07;;;17.87;;
16579;SDS011;8402;51.466;6.806;2023-11-21T07:23:31;58.10;;;19.07;;
16579;SDS011;8402;51.466;6.806;2023-11-21T07:26:04;59.20;;;18.47;;
16579;SDS011;8402;51.466;6.806;2023-11-21T07:28:36;65.07;;;19.00;;
16579;SDS011;8402;51.466;6.806;2023-11-21T07:31:05;54.43;;;17.67;;
16579;SDS011;8402;51.466;6.806;2023-11-21T07:33:35;53.47;;;18.23;;
16579;SDS011;8402;51.466;6.806;2023-11-21T07:36:07;55.13;;;17.90;;
16579;SDS011;8402;51.466;6.806;2023-11-21T07:38:38;56.83;;;17.43;;
16579;SDS011;8402;51.466;6.806;2023-11-21T07:41:11;58.17;;;17.53;;
16579;SDS011;8402;51.466;6.806;2023-11-21T07:43:56;56.20;;;18.97;;
16579;SDS011;8402;51.466;6.806;2023-11-21T07:46:26;56.57;;;18.20;;
16579;SDS011;8402;51.466;6.806;2023-11-21T07:48:56;56.37;;;19.43;;
16579;SDS011;8402;51.466;6.806;2023-11-21T07:51:26;58.27;;;18.67;;
16579;SDS011;8402;51.466;6.806;2023-11-21T07:53:56;65.53;;;18.73;;
16579;SDS011;8402;51.466;6.806;2023-11-21T07:56:28;54.20;;;18.70;;
16579;SDS011;8402;51.466;6.806;2023-11-21T07:58:58;80.97;;;21.27;;
16579;SDS011;8402;51.466;6.806;2023-11-21T08:01:28;88.17;;;25.03;;
16579;SDS011;8402;51.466;6.806;2023-11-21T08:03:59;73.97;;;22.73;;
16579;SDS011;8402;51.466;6.806;2023-11-21T08:06:31;76.13;;;23.17;;
16579;SDS011;8402;51.466;6.806;2023-11-21T08:09:01;70.17;;;22.87;;
16579;SDS011;8402;51.466;6.806;2023-11-21T08:11:33;73.47;;;21.43;;
16579;SDS011;8402;51.466;6.806;2023-11-21T08:14:05;70.53;;;21.63;;
16579;SDS011;8402;51.466;6.806;2023-11-21T08:16:35;73.57;;;22.27;;
16579;SDS011;8402;51.466;6.806;2023-11-21T08:19:05;67.53;;;22.93;;
16579;SDS011;8402;51.466;6.806;2023-11-21T08:21:36;59.03;;;20.30;;
16579;SDS011;8402;51.466;6.806;2023-11-21T08:24:07;69.10;;;20.53;;
16579;SDS011;8402;51.466;6.806;2023-11-21T08:26:40;59.30;;;20.13;;
16579;SDS011;8402;51.466;6.806;2023-11-21T08:29:10;65.30;;;20.47;;
16579;SDS011;8402;51.466;6.806;2023-11-21T08:31:40;59.10;;;19.07;;
16579;SDS011;8402;51.466;6.806;2023-11-21T08:34:11;63.97;;;20.73;;
16579;SDS011;8402;51.466;6.806;2023-11-21T08:36:42;65.73;;;19.90;;
16579;SDS011;8402;51.466;6.806;2023-11-21T08:39:12;66.67;;;20.93;;
16579;SDS011;8402;51.466;6.806;2023-11-21T08:41:48;62.90;;;21.23;;
16579;SDS011;8402;51.466;6.806;2023-11-21T08:44:18;62.80;;;21.50;;
16579;SDS011;8402;51.466;6.806;2023-11-21T08:46:49;69.63;;;21.80;;
16579;SDS011;8402;51.466;6.806;2023-11-21T08:49:19;59.97;;;20.63;;
16579;SDS011;8402;51.466;6.806;2023-11-21T08:51:49;63.23;;;20.90;;
16579;SDS011;8402;51.466;6.806;2023-11-21T08:54:21;62.87;;;20.67;;
16579;SDS011;8402;51.466;6.806;2023-11-21T08:56:54;63.70;;;21.83;;
16579;SDS011;8402;51.466;6.806;2023-11-21T08:59:25;67.60;;;21.90;;
16579;SDS011;8402;51.466;6.806;2023-11-21T09:01:55;66.83;;;22.23;;
16579;SDS011;8402;51.466;6.806;2023-11-21T09:04:25;71.10;;;23.27;;
16579;SDS011;8402;51.466;6.806;2023-11-21T09:06:55;65.53;;;22.03;;
16579;SDS011;8402;51.466;6.806;2023-11-21T09:09:26;76.43;;;22.70;;
16579;SDS011;8402;51.466;6.806;2023-11-21T09:11:59;80.47;;;24.13;;
16579;SDS011;8402;51.466;6.806;2023-11-21T09:14:29;70.27;;;22.87;;
16579;SDS011;8402;51.466;6.806;2023-11-21T09:16:59;75.30;;;23.40;;
16579;SDS011;8402;51.466;6.806;2023-11-21T09:19:29;78.20;;;23.27;;
16579;SDS011;8402;51.466;6.806;2023-11-21T09:21:59;78.60;;;23.87;;
16579;SDS011;8402;51.466;6.806;2023-11-21T09:24:29;62.97;;;21.97;;
16579;SDS011;8402;51.466;6.806;2023-11-21T09:27:01;65.83;;;22.67;;
16579;SDS011;8402;51.466;6.806;2023-11-21T09:29:32;69.93;;;23.20;;
16579;SDS011;8402;51.466;6.806;2023-11-21T09:32:02;72.63;;;24.63;;
16579;SDS011;8402;51.466;6.806;2023-11-21T09:34:33;72.93;;;24.00;;
16579;SDS011;8402;51.466;6.806;2023-11-21T09:37:05;76.20;;;24.20;;
16579;SDS011;8402;51.466;6.806;2023-11-21T09:39:36;68.67;;;22.93;;
16579;SDS011;8402;51.466;6.806;2023-11-21T09:42:10;68.03;;;23.47;;
16579;SDS011;8402;51.466;6.806;2023-11-21T09:44:45;84.37;;;24.67;;
16579;SDS011;8402;51.466;6.806;2023-11-21T09:47:18;74.60;;;23.83;;
16579;SDS011;8402;51.466;6.806;2023-11-21T09:49:49;66.90;;;23.17;;
16579;SDS011;8402;51.466;6.806;2023-11-21T09:52:22;71.80;;;23.93;;
16579;SDS011;8402;51.466;6.806;2023-11-21T09:54:55;72.13;;;23.13;;
16579;SDS011;8402;51.466;6.806;2023-11-21T09:57:30;74.50;;;24.13;;
16579;SDS011;8402;51.466;6.806;2023-11-21T10:00:00;85.53;;;25.57;;
16579;SDS011;8402;51.466;6.806;2023-11-21T10:02:38;67.73;;;23.47;;
16579;SDS011;8402;51.466;6.806;2023-11-21T10:05:09;82.10;;;24.50;;
16579;SDS011;8402;51.466;6.806;2023-11-21T10:07:39;83.83;;;26.23;;
16579;SDS011;8402;51.466;6.806;2023-11-21T10:10:11;83.23;;;24.27;;
16579;SDS011;8402;51.466;6.806;2023-11-21T10:12:46;82.03;;;24.97;;
16579;SDS011;8402;51.466;6.806;2023-11-21T10:15:21;89.53;;;26.23;;
16579;SDS011;8402;51.466;6.806;2023-11-21T10:17:52;96.73;;;27.30;;
16579;SDS011;8402;51.466;6.806;2023-11-21T10:20:24;90.33;;;26.53;;
16579;SDS011;8402;51.466;6.806;2023-11-21T10:22:56;88.43;;;27.23;;
16579;SDS011;8402;51.466;6.806;2023-11-21T10:25:26;91.03;;;27.00;;
16579;SDS011;8402;51.466;6.806;2023-11-21T10:28:00;85.80;;;26.43;;
16579;SDS011;8402;51.466;6.806;2023-11-21T10:30:33;90.43;;;26.60;;
16579;SDS011;8402;51.466;6.806;2023-11-21T10:33:05;100.53;;;27.53;;
16579;SDS011;8402;51.466;6.806;2023-11-21T10:35:44;99.90;;;29.93;;
16579;SDS011;8402;51.466;6.806;2023-11-21T10:38:17;110.20;;;29.17;;
16579;SDS011;8402;51.466;6.806;2023-11-21T10:40:49;106.03;;;30.77;;
16579;SDS011;8402;51.466;6.806;2023-11-21T10:43:26;111.70;;;31.30;;
16579;SDS011;8402;51.466;6.806;2023-11-21T10:45:58;116.77;;;31.33;;
16579;SDS011;8402;51.466;6.806;2023-11-21T10:48:29;104.20;;;30.70;;
16579;SDS011;8402;51.466;6.806;2023-11-21T10:51:06;98.77;;;29.90;;
16579;SDS011;8402;51.466;6.806;2023-11-21T10:53:40;108.50;;;31.33;;
16579;SDS011;8402;51.466;6.806;2023-11-21T10:56:14;97.27;;;29.63;;
16579;SDS011;8402;51.466;6.806;2023-11-21T10:58:49;103.67;;;30.93;;
16579;SDS011;8402;51.466;6.806;2023-11-21T11:01:19;100.43;;;29.97;;
16579;SDS011;8402;51.466;6.806;2023-11-21T11:03:51;99.10;;;28.87;;
16579;SDS011;8402;51.466;6.806;2023-11-21T11:06:24;86.03;;;28.23;;
16579;SDS011;8402;51.466;6.806;2023-11-21T11:08:55;77.43;;;26.07;;
16579;SDS011;8402;51.466;6.806;2023-11-21T11:11:28;77.07;;;26.90;;
16579;SDS011;8402;51.466;6.806;2023-11-21T11:14:02;73.40;;;24.93;;
16579;SDS011;8402;51.466;6.806;2023-11-21T11:16:33;64.10;;;22.97;;
16579;SDS011;8402;51.466;6.806;2023-11-21T11:19:04;48.67;;;19.63;;
16579;SDS011;8402;51.466;6.806;2023-11-21T11:21:37;45.20;;;18.63;;
16579;SDS011;8402;51.466;6.806;2023-11-21T11:24:28;43.83;;;17.97;;
16579;SDS011;8402;51.466;6.806;2023-11-21T11:27:15;52.43;;;19.03;;
16579;SDS011;8402;51.466;6.806;2023-11-21T11:30:04;48.60;;;17.87;;
16579;SDS011;8402;51.466;6.806;2023-11-21T11:32:45;37.97;;;15.97;;
16579;SDS011;8402;51.466;6.806;2023-11-21T11:35:25;44.77;;;16.07;;
16579;SDS011;8402;51.466;6.806;2023-11-21T11:38:01;37.53;;;15.27;;
16579;SDS011;8402;51.466;6.806;2023-11-21T11:40:40;43.30;;;16.10;;
16579;SDS011;8402;51.466;6.806;2023-11-21T11:43:11;38.20;;;14.50;;
16579;SDS011;8402;51.466;6.806;2023-11-21T11:45:44;35.73;;;14.30;;
16579;SDS011;8402;51.466;6.806;2023-11-21T11:48:18;37.13;;;14.93;;
16579;SDS011;8402;51.466;6.806;2023-11-21T11:51:04;47.17;;;15.57;;
16579;SDS011;8402;51.466;6.806;2023-11-21T11:53:36;42.00;;;15.13;;
16579;SDS011;8402;51.466;6.806;2023-11-21T11:56:19;41.57;;;15.63;;
16579;SDS011;8402;51.466;6.806;2023-11-21T11:58:55;42.23;;;15.80;;
16579;SDS011;8402;51.466;6.806;2023-11-21T12:01:32;42.77;;;16.13;;
16579;SDS011;8402;51.466;6.806;2023-11-21T12:07:07;41.70;;;16.20;;
16579;SDS011;8402;51.466;6.806;2023-11-21T12:09:36;41.37;;;15.87;;
16579;SDS011;8402;51.466;6.806;2023-11-21T12:12:08;44.87;;;15.97;;
16579;SDS011;8402;51.466;6.806;2023-11-21T12:14:37;37.93;;;15.00;;
16579;SDS011;8402;51.466;6.806;2023-11-21T12:17:10;40.20;;;15.80;;
16579;SDS011;8402;51.466;6.806;2023-11-21T12:19:40;35.80;;;14.53;;
16579;SDS011;8402;51.466;6.806;2023-11-21T12:22:10;38.07;;;14.87;;
16579;SDS011;8402;51.466;6.806;2023-11-21T12:24:40;36.90;;;15.43;;
16579;SDS011;8402;51.466;6.806;2023-11-21T12:27:10;40.03;;;15.30;;
16579;SDS011;8402;51.466;6.806;2023-11-21T12:29:40;40.50;;;15.80;;
16579;SDS011;8402;51.466;6.806;2023-11-21T12:32:13;38.13;;;15.50;;
16579;SDS011;8402;51.466;6.806;2023-11-21T12:34:45;35.73;;;14.37;;
16579;SDS011;8402;51.466;6.806;2023-11-21T12:37:16;32.73;;;13.13;;
16579;SDS011;8402;51.466;6.806;2023-11-21T12:39:45;28.60;;;11.87;;
16579;SDS011;8402;51.466;6.806;2023-11-21T12:42:16;26.10;;;11.40;;
16579;SDS011;8402;51.466;6.806;2023-11-21T12:44:47;27.37;;;10.97;;
16579;SDS011;8402;51.466;6.806;2023-11-21T12:47:20;26.00;;;11.80;;
16579;SDS011;8402;51.466;6.806;2023-11-21T12:49:52;25.33;;;11.20;;
16579;SDS011;8402;51.466;6.806;2023-11-21T12:52:23;30.40;;;12.60;;
16579;SDS011;8402;51.466;6.806;2023-11-21T12:54:53;27.10;;;12.07;;
16579;SDS011;8402;51.466;6.806;2023-11-21T12:57:25;24.50;;;10.13;;
16579;SDS011;8402;51.466;6.806;2023-11-21T12:59:56;25.07;;;9.93;;
16579;SDS011;8402;51.466;6.806;2023-11-21T13:02:29;21.60;;;10.03;;
16579;SDS011;8402;51.466;6.806;2023-11-21T13:05:01;22.47;;;8.97;;
16579;SDS011;8402;51.466;6.806;2023-11-21T13:07:41;17.67;;;8.53;;
16579;SDS011;8402;51.466;6.806;2023-11-21T13:10:13;18.90;;;9.23;;
16579;SDS011;8402;51.466;6.806;2023-11-21T13:12:43;17.50;;;8.03;;
16579;SDS011;8402;51.466;6.806;2023-11-21T13:15:14;18.50;;;8.47;;
16579;SDS011;8402;51.466;6.806;2023-11-21T13:17:48;19.87;;;8.73;;
16579;SDS011;8402;51.466;6.806;2023-11-21T13:20:20;18.83;;;8.57;;
16579;SDS011;8402;51.466;6.806;2023-11-21T13:22:51;20.07;;;9.27;;
16579;SDS011;8402;51.466;6.806;2023-11-21T13:25:24;22.30;;;8.80;;
16579;SDS011;8402;51.466;6.806;2023-11-21T13:27:55;17.30;;;8.20;;
16579;SDS011;8402;51.466;6.806;2023-11-21T13:30:25;20.03;;;7.97;;
16579;SDS011;8402;51.466;6.806;2023-11-21T13:33:03;18.13;;;8.10;;
16579;SDS011;8402;51.466;6.806;2023-11-21T13:35:35;19.27;;;7.90;;
16579;SDS011;8402;51.466;6.806;2023-11-21T13:38:09;19.10;;;7.43;;
16579;SDS011;8402;51.466;6.806;2023-11-21T13:40:40;15.63;;;7.50;;
16579;SDS011;8402;51.466;6.806;2023-11-21T13:43:13;17.60;;;7.63;;
16579;SDS011;8402;51.466;6.806;2023-11-21T13:45:43;16.00;;;7.70;;
16579;SDS011;8402;51.466;6.806;2023-11-21T13:48:17;15.07;;;7.13;;
16579;SDS011;8402;51.466;6.806;2023-11-21T13:50:57;16.53;;;7.73;;
16579;SDS011;8402;51.466;6.806;2023-11-21T13:53:35;16.47;;;7.80;;
16579;SDS011;8402;51.466;6.806;2023-11-21T13:56:05;16.27;;;8.17;;
16579;SDS011;8402;51.466;6.806;2023-11-21T13:58:36;20.43;;;8.20;;
16579;SDS011;8402;51.466;6.806;2023-11-21T14:01:13;19.07;;;8.43;;
16579;SDS011;8402;51.466;6.806;2023-11-21T14:03:54;19.63;;;8.20;;
16579;SDS011;8402;51.466;6.806;2023-11-21T14:06:29;19.40;;;7.93;;
16579;SDS011;8402;51.466;6.806;2023-11-21T14:09:05;19.37;;;8.77;;
16579;SDS011;8402;51.466;6.806;2023-11-21T14:11:35;19.47;;;8.47;;
16579;SDS011;8402;51.466;6.806;2023-11-21T14:14:13;19.73;;;9.03;;
16579;SDS011;8402;51.466;6.806;2023-11-21T14:16:44;19.30;;;9.67;;
16579;SDS011;8402;51.466;6.806;2023-11-21T14:19:17;19.40;;;9.17;;
16579;SDS011;8402;51.466;6.806;2023-11-21T14:21:47;21.23;;;9.30;;
16579;SDS011;8402;51.466;6.806;2023-11-21T14:24:19;23.57;;;9.20;;
16579;SDS011;8402;51.466;6.806;2023-11-21T14:26:50;20.47;;;9.13;;
16579;SDS011;8402;51.466;6.806;2023-11-21T14:29:20;18.17;;;8.93;;
16579;SDS011;8402;51.466;6.806;2023-11-21T14:31:50;17.57;;;8.73;;
16579;SDS011;8402;51.466;6.806;2023-11-21T14:34:26;18.90;;;8.70;;
16579;SDS011;8402;51.466;6.806;2023-11-21T14:36:56;17.30;;;8.57;;
16579;SDS011;8402;51.466;6.806;2023-11-21T14:39:26;19.70;;;8.53;;
16579;SDS011;8402;51.466;6.806;2023-11-21T14:41:56;16.33;;;8.50;;
16579;SDS011;8402;51.466;6.806;2023-11-21T14:44:29;19.50;;;9.03;;
16579;SDS011;8402;51.466;6.806;2023-11-21T14:47:05;14.83;;;7.07;;
16579;SDS011;8402;51.466;6.806;2023-11-21T14:49:47;16.13;;;7.23;;
16579;SDS011;8402;51.466;6.806;2023-11-21T14:52:23;18.13;;;8.70;;
16579;SDS011;8402;51.466;6.806;2023-11-21T14:55:01;15.63;;;7.63;;
16579;SDS011;8402;51.466;6.806;2023-11-21T14:57:57;14.77;;;7.30;;
16579;SDS011;8402;51.466;6.806;2023-11-21T15:00:28;16.57;;;7.90;;
16579;SDS011;8402;51.466;6.806;2023-11-21T15:03:12;15.07;;;7.10;;
16579;SDS011;8402;51.466;6.806;2023-11-21T15:06:04;18.43;;;7.90;;
16579;SDS011;8402;51.466;6.806;2023-11-21T15:08:49;17.37;;;7.60;;
16579;SDS011;8402;51.466;6.806;2023-11-21T15:11:27;14.60;;;6.77;;